createdAt,value
2022-09-04T00:00:03.707Z,6.93
2022-09-04T00:02:49.907Z,6.68
2022-09-04T00:05:39.169Z,6.95
2022-09-04T00:08:24.689Z,7.60
2022-09-04T00:10:55.016Z,6.00
2022-09-04T00:13:27.742Z,6.22
2022-09-04T00:16:02.524Z,6.72
2022-09-04T00:18:42.542Z,6.35
2022-09-04T00:21:26.455Z,6.78
2022-09-04T00:23:59.426Z,6.07
2022-09-04T00:26:58.148Z,6.63
2022-09-04T00:29:56.476Z,6.40
2022-09-04T00:32:42.167Z,5.97
2022-09-04T00:35:31.308Z,5.97
2022-09-04T00:38:13.333Z,6.50
2022-09-04T00:41:00.250Z,5.32
2022-09-04T00:43:56.967Z,5.63
2022-09-04T00:46:47.776Z,5.68
2022-09-04T00:49:22.964Z,5.97
2022-09-04T00:51:56.112Z,5.80
2022-09-04T00:55:01.624Z,5.45
2022-09-04T00:58:02.762Z,5.35
2022-09-04T01:00:30.789Z,6.05
2022-09-04T01:03:07.221Z,5.75
2022-09-04T01:06:02.316Z,4.88
2022-09-04T01:08:59.950Z,5.03
2022-09-04T01:11:38.343Z,5.32
2022-09-04T01:14:14.537Z,5.30
2022-09-04T01:17:03.426Z,5.15
2022-09-04T01:20:01.592Z,5.18
2022-09-04T01:22:48.496Z,5.43
2022-09-04T01:25:43.419Z,4.97
2022-09-04T01:28:20.519Z,5.45
2022-09-04T01:31:15.601Z,4.65
2022-09-04T01:36:28.314Z,4.72
2022-09-04T01:39:01.155Z,4.93
2022-09-04T01:41:38.206Z,4.90
2022-09-04T01:44:08.231Z,4.50
2022-09-04T01:47:23.444Z,4.78
2022-09-04T01:50:05.942Z,4.63
2022-09-04T01:52:48.885Z,4.53
2022-09-04T01:55:48.145Z,4.30
2022-09-04T01:58:36.503Z,4.32
2022-09-04T02:01:10.981Z,4.90
2022-09-04T02:03:56.786Z,4.40
2022-09-04T02:06:56.158Z,4.40
2022-09-04T02:09:41.988Z,4.30
2022-09-04T02:12:27.397Z,4.70
2022-09-04T02:15:13.498Z,4.20
2022-09-04T02:17:45.359Z,4.32
2022-09-04T02:20:26.479Z,4.07
2022-09-04T02:23:00.095Z,4.03
2022-09-04T02:25:32.682Z,4.30
2022-09-04T02:28:27.148Z,4.15
2022-09-04T02:31:15.468Z,4.18
2022-09-04T02:33:58.598Z,3.65
2022-09-04T02:36:38.723Z,3.85
2022-09-04T02:39:23.470Z,4.18
2022-09-04T02:45:12.823Z,4.03
2022-09-04T02:48:13.774Z,4.60
2022-09-04T02:51:22.660Z,4.30
2022-09-04T02:54:05.584Z,3.95
2022-09-04T02:56:43.754Z,3.42
2022-09-04T02:59:41.561Z,3.75
2022-09-04T03:02:41.625Z,4.22
2022-09-04T03:05:23.077Z,3.80
2022-09-04T03:08:08.702Z,4.00
2022-09-04T03:10:56.371Z,4.05
2022-09-04T03:13:46.662Z,3.97
2022-09-04T03:16:28.335Z,4.15
2022-09-04T03:19:10.564Z,4.32
2022-09-04T03:22:13.682Z,3.70
2022-09-04T03:25:12.123Z,4.13
2022-09-04T03:27:39.541Z,4.25
2022-09-04T03:30:09.888Z,4.10
2022-09-04T03:32:54.240Z,4.18
2022-09-04T03:35:49.346Z,4.20
2022-09-04T03:41:14.717Z,4.20
2022-09-04T03:43:55.558Z,4.10
2022-09-04T03:46:50.134Z,4.05
2022-09-04T03:49:44.736Z,4.47
2022-09-04T03:52:24.944Z,4.13
2022-09-04T03:55:10.279Z,4.32
2022-09-04T03:57:54.401Z,4.00
2022-09-04T04:00:23.101Z,4.20
2022-09-04T04:03:13.627Z,4.00
2022-09-04T04:05:56.606Z,4.50
2022-09-04T04:08:56.805Z,4.10
2022-09-04T04:11:41.348Z,4.28
2022-09-04T04:14:22.464Z,4.25
2022-09-04T04:17:04.722Z,4.20
2022-09-04T04:20:22.131Z,4.03
2022-09-04T04:23:05.506Z,4.22
2022-09-04T04:25:52.623Z,4.05
2022-09-04T04:28:27.932Z,4.22
2022-09-04T04:31:14.424Z,4.55
2022-09-04T04:33:52.542Z,4.10
2022-09-04T04:36:45.542Z,4.20
2022-09-04T04:39:30.979Z,4.20
2022-09-04T04:42:17.211Z,4.38
2022-09-04T04:45:36.257Z,5.28
2022-09-04T04:48:15.307Z,4.75
2022-09-04T04:50:49.572Z,4.60
2022-09-04T04:53:31.981Z,4.70
2022-09-04T04:56:16.166Z,4.43
2022-09-04T04:59:08.137Z,4.78
2022-09-04T05:01:56.234Z,4.60
2022-09-04T05:04:41.066Z,4.68
2022-09-04T05:10:02.810Z,4.68
2022-09-04T05:12:57.878Z,4.20
2022-09-04T05:18:11.508Z,4.70
2022-09-04T05:20:56.942Z,5.00
2022-09-04T05:23:39.288Z,5.18
2022-09-04T05:26:36.034Z,5.20
2022-09-04T05:29:03.270Z,4.97
2022-09-04T05:31:57.750Z,4.72
2022-09-04T05:34:55.994Z,5.50
2022-09-04T05:37:53.483Z,5.28
2022-09-04T05:40:46.645Z,5.60
2022-09-04T05:43:33.532Z,5.30
2022-09-04T05:46:19.385Z,5.82
2022-09-04T05:49:04.927Z,5.30
2022-09-04T05:51:53.224Z,5.38
2022-09-04T05:54:33.183Z,5.90
2022-09-04T05:57:24.107Z,5.85
2022-09-04T06:00:25.068Z,5.93
2022-09-04T06:03:16.268Z,5.97
2022-09-04T06:05:46.517Z,5.63
2022-09-04T06:08:28.605Z,5.90
2022-09-04T06:11:39.661Z,5.80
2022-09-04T06:14:48.568Z,5.78
2022-09-04T06:17:36.683Z,5.70
2022-09-04T06:20:30.953Z,5.45
2022-09-04T06:23:19.705Z,6.28
2022-09-04T06:26:19.727Z,6.20
2022-09-04T06:29:09.753Z,7.43
2022-09-04T06:32:03.090Z,7.45
2022-09-04T06:34:45.771Z,8.90
2022-09-04T06:37:36.105Z,10.02
2022-09-04T06:40:16.663Z,10.10
2022-09-04T06:42:55.375Z,10.63
2022-09-04T06:45:32.545Z,11.23
2022-09-04T06:48:18.635Z,10.48
2022-09-04T06:51:23.963Z,11.82
2022-09-04T06:54:00.349Z,13.55
2022-09-04T06:56:37.982Z,12.23
2022-09-04T06:59:20.291Z,12.98
2022-09-04T07:02:06.420Z,12.80
2022-09-04T07:04:47.036Z,12.18
2022-09-04T07:07:41.751Z,13.23
2022-09-04T07:10:14.427Z,12.25
2022-09-04T07:13:15.592Z,11.65
2022-09-04T07:15:49.115Z,12.77
2022-09-04T07:19:01.748Z,15.02
2022-09-04T07:22:10.707Z,13.80
2022-09-04T07:25:03.640Z,13.77
2022-09-04T07:27:43.275Z,16.67
2022-09-04T07:30:16.175Z,16.25
2022-09-04T07:32:58.465Z,15.80
2022-09-04T07:35:45.575Z,16.40
2022-09-04T07:38:34.333Z,17.55
2022-09-04T07:41:17.742Z,18.70
2022-09-04T07:44:13.905Z,19.48
2022-09-04T07:47:05.325Z,20.23
2022-09-04T07:49:37.859Z,17.73
2022-09-04T07:52:10.965Z,23.80
2022-09-04T07:54:52.516Z,18.63
2022-09-04T07:57:40.624Z,18.20
2022-09-04T08:00:15.360Z,17.48
2022-09-04T08:02:57.962Z,17.27
2022-09-04T08:05:25.303Z,16.27
2022-09-04T08:08:11.023Z,16.50
2022-09-04T08:11:02.592Z,17.52
2022-09-04T08:13:51.272Z,17.65
2022-09-04T08:16:47.779Z,20.35
2022-09-04T08:19:28.912Z,23.25
2022-09-04T08:21:57.167Z,25.42
2022-09-04T08:24:52.589Z,29.40
2022-09-04T08:27:47.767Z,31.17
2022-09-04T08:30:19.536Z,31.20
2022-09-04T08:33:05.333Z,32.65
2022-09-04T08:35:51.094Z,30.27
2022-09-04T08:38:50.170Z,30.13
2022-09-04T08:41:54.792Z,31.55
2022-09-04T08:44:59.156Z,30.75
2022-09-04T08:48:03.188Z,30.30
2022-09-04T08:50:39.747Z,28.98
2022-09-04T08:53:29.561Z,29.20
2022-09-04T08:56:16.921Z,29.50
2022-09-04T08:59:18.555Z,29.65
2022-09-04T09:02:04.161Z,28.50
2022-09-04T09:04:36.176Z,27.50
2022-09-04T09:07:06.194Z,26.25
2022-09-04T09:09:48.662Z,26.48
2022-09-04T09:12:53.351Z,28.05
2022-09-04T09:15:50.964Z,26.25
2022-09-04T09:18:40.544Z,26.60
2022-09-04T09:21:34.666Z,28.10
2022-09-04T09:24:59.575Z,25.60
2022-09-04T09:27:45.583Z,26.17
2022-09-04T09:30:19.467Z,25.00
2022-09-04T09:33:07.797Z,24.50
2022-09-04T09:35:57.896Z,24.85
2022-09-04T09:38:41.719Z,26.20
2022-09-04T09:41:37.191Z,25.13
2022-09-04T09:44:29.436Z,25.52
2022-09-04T09:47:27.569Z,25.63
2022-09-04T09:50:00.662Z,24.63
2022-09-04T09:53:18.909Z,25.30
2022-09-04T09:55:49.152Z,24.98
2022-09-04T09:58:39.513Z,23.27
2022-09-04T10:01:21.997Z,23.27
2022-09-04T10:04:21.526Z,23.85
2022-09-04T10:07:18.449Z,25.73
2022-09-04T10:10:24.805Z,25.45
2022-09-04T10:13:19.587Z,25.67
2022-09-04T10:15:55.473Z,23.70
2022-09-04T10:18:53.154Z,24.27
2022-09-04T10:21:57.082Z,23.58
2022-09-04T10:24:41.938Z,22.30
2022-09-04T10:27:34.649Z,22.83
2022-09-04T10:30:18.492Z,23.77
2022-09-04T10:32:58.593Z,21.55
2022-09-04T10:35:42.031Z,22.10
2022-09-04T10:39:18.636Z,20.88
2022-09-04T10:42:00.796Z,20.38
2022-09-04T10:44:54.013Z,22.13
2022-09-04T10:47:51.296Z,20.75
2022-09-04T10:50:56.772Z,20.80
2022-09-04T10:53:56.519Z,20.30
2022-09-04T10:56:36.423Z,18.77
2022-09-04T10:59:15.799Z,18.00
2022-09-04T11:02:12.540Z,17.80
2022-09-04T11:05:07.071Z,16.67
2022-09-04T11:08:13.827Z,15.20
2022-09-04T11:10:47.552Z,15.13
2022-09-04T11:13:23.842Z,14.52
2022-09-04T11:16:14.854Z,12.63
2022-09-04T11:19:13.108Z,12.82
2022-09-04T11:21:59.012Z,13.00
2022-09-04T11:24:43.789Z,12.82
2022-09-04T11:27:44.847Z,13.20
2022-09-04T11:30:27.504Z,13.43
2022-09-04T11:33:16.080Z,14.23
2022-09-04T11:35:52.110Z,12.52
2022-09-04T11:38:28.461Z,13.32
2022-09-04T11:41:30.420Z,12.25
2022-09-04T11:44:38.072Z,14.98
2022-09-04T11:47:32.850Z,14.90
2022-09-04T11:50:17.672Z,12.65
2022-09-04T11:53:08.335Z,11.98
2022-09-04T11:56:07.986Z,11.48
2022-09-04T11:58:36.568Z,10.75
2022-09-04T12:01:22.474Z,9.88
2022-09-04T12:04:22.995Z,9.25
2022-09-04T12:07:12.424Z,9.65
2022-09-04T12:09:49.202Z,9.20
2022-09-04T12:12:22.800Z,9.05
2022-09-04T12:15:11.908Z,9.68
2022-09-04T12:18:21.137Z,8.93
2022-09-04T12:21:00.607Z,9.70
2022-09-04T12:23:30.867Z,8.25
2022-09-04T12:26:11.620Z,8.88
2022-09-04T12:29:04.115Z,8.75
2022-09-04T12:31:51.805Z,7.82
2022-09-04T12:34:28.027Z,7.72
2022-09-04T12:37:19.922Z,7.85
2022-09-04T12:39:55.695Z,7.78
2022-09-04T12:42:41.135Z,8.68
2022-09-04T12:45:46.870Z,8.93
2022-09-04T12:48:20.093Z,8.60
2022-09-04T12:51:14.906Z,8.55
2022-09-04T12:53:48.147Z,8.07
2022-09-04T12:56:43.920Z,8.32
2022-09-04T12:59:39.583Z,8.18
2022-09-04T13:02:31.632Z,8.35
2022-09-04T13:05:21.732Z,7.80
2022-09-04T13:08:18.831Z,7.45
2022-09-04T13:11:04.940Z,7.00
2022-09-04T13:14:09.986Z,7.10
2022-09-04T13:16:55.073Z,7.25
2022-09-04T13:19:50.125Z,6.75
2022-09-04T13:25:07.593Z,7.10
2022-09-04T13:27:57.547Z,6.60
2022-09-04T13:30:26.468Z,5.95
2022-09-04T13:33:12.735Z,8.00
2022-09-04T13:36:07.122Z,7.03
2022-09-04T13:38:43.787Z,7.03
2022-09-04T13:41:38.711Z,7.80
2022-09-04T13:46:59.614Z,7.63
2022-09-04T13:49:32.242Z,8.88
2022-09-04T13:52:24.335Z,9.77
2022-09-04T13:55:14.978Z,9.48
2022-09-04T13:57:49.931Z,9.80
2022-09-04T14:00:17.501Z,10.70
2022-09-04T14:02:47.590Z,11.32
2022-09-04T14:05:23.125Z,11.75
2022-09-04T14:08:02.847Z,12.13
2022-09-04T14:10:39.364Z,13.63
2022-09-04T14:13:37.688Z,14.52
2022-09-04T14:16:11.579Z,15.35
2022-09-04T14:19:15.608Z,14.80
2022-09-04T14:22:05.096Z,14.00
2022-09-04T14:24:48.384Z,14.65
2022-09-04T14:27:34.676Z,14.82
2022-09-04T14:30:14.653Z,14.07
2022-09-04T14:33:07.727Z,14.68
2022-09-04T14:35:47.632Z,14.55
2022-09-04T14:38:41.189Z,15.07
2022-09-04T14:41:36.176Z,13.70
2022-09-04T14:44:09.771Z,12.02
2022-09-04T14:47:00.732Z,11.73
2022-09-04T14:49:31.938Z,10.30
2022-09-04T14:52:14.523Z,8.93
2022-09-04T14:54:46.187Z,8.15
2022-09-04T14:57:29.599Z,7.43
2022-09-04T15:00:06.513Z,7.55
2022-09-04T15:03:07.747Z,6.53
2022-09-04T15:05:55.806Z,6.80
2022-09-04T15:08:41.821Z,6.90
2022-09-04T15:11:30.440Z,6.43
2022-09-04T15:14:19.380Z,6.32
2022-09-04T15:16:51.383Z,6.88
2022-09-04T15:19:28.337Z,5.72
2022-09-04T15:22:12.373Z,5.35
2022-09-04T15:24:54.630Z,5.32
2022-09-04T15:27:54.898Z,5.88
2022-09-04T15:30:25.587Z,5.40
2022-09-04T15:33:13.526Z,5.00
2022-09-04T15:35:41.711Z,5.82
2022-09-04T15:38:22.091Z,4.97
2022-09-04T15:41:15.744Z,4.55
2022-09-04T15:43:44.091Z,4.53
2022-09-04T15:46:29.721Z,4.63
2022-09-04T15:49:20.633Z,4.57
2022-09-04T15:52:10.252Z,4.38
2022-09-04T15:54:40.667Z,4.60
2022-09-04T15:57:17.373Z,4.70
2022-09-04T15:59:53.098Z,4.50
2022-09-04T16:02:38.500Z,4.38
2022-09-04T16:05:23.961Z,4.47
2022-09-04T16:08:20.486Z,5.20
2022-09-04T16:11:06.658Z,7.38
2022-09-04T16:13:59.149Z,6.25
2022-09-04T16:16:39.189Z,6.32
2022-09-04T16:19:17.714Z,7.93
2022-09-04T16:22:01.742Z,6.57
2022-09-04T16:24:42.515Z,6.07
2022-09-04T16:27:16.993Z,5.65
2022-09-04T16:29:53.232Z,4.60
2022-09-04T16:32:24.379Z,5.55
2022-09-04T16:35:07.964Z,5.18
2022-09-04T16:37:35.196Z,5.38
2022-09-04T16:40:24.421Z,5.63
2022-09-04T16:43:00.713Z,6.25
2022-09-04T16:45:38.899Z,6.18
2022-09-04T16:48:34.692Z,5.97
2022-09-04T16:51:40.362Z,6.18
2022-09-04T16:54:30.348Z,6.78
2022-09-04T16:57:17.195Z,6.88
2022-09-04T16:59:53.355Z,6.80
2022-09-04T17:02:55.210Z,6.40
2022-09-04T17:05:45.824Z,6.20
2022-09-04T17:08:34.822Z,6.38
2022-09-04T17:11:05.482Z,6.03
2022-09-04T17:13:55.451Z,6.18
2022-09-04T17:16:25.504Z,6.28
2022-09-04T17:18:55.410Z,6.30
2022-09-04T17:26:59.023Z,6.38
2022-09-04T17:29:08.630Z,6.13
2022-09-04T17:29:12.477Z,6.07
2022-09-04T17:31:33.229Z,7.00
2022-09-04T17:40:49.259Z,5.13
2022-09-04T17:40:51.300Z,5.05
2022-09-04T17:43:24.335Z,4.57
2022-09-04T17:46:17.183Z,4.25
2022-09-04T17:48:45.879Z,3.13
2022-09-04T17:51:28.061Z,3.08
2022-09-04T17:53:59.856Z,2.65
2022-09-04T17:56:53.467Z,2.38
2022-09-04T17:59:45.764Z,2.40
2022-09-04T18:02:17.686Z,2.55
2022-09-04T18:05:17.616Z,2.38
2022-09-04T18:08:11.804Z,2.72
2022-09-04T18:11:08.608Z,3.25
2022-09-04T18:13:45.207Z,4.38
2022-09-04T18:16:34.207Z,4.60
2022-09-04T18:19:38.702Z,4.45
2022-09-04T18:22:25.405Z,3.60
2022-09-04T18:25:17.765Z,2.90
2022-09-04T18:28:25.486Z,2.38
2022-09-04T18:37:05.179Z,2.25
2022-09-04T18:37:17.024Z,1.83
2022-09-04T18:37:20.414Z,2.20
2022-09-04T18:39:52.239Z,2.40
2022-09-04T18:50:35.128Z,2.20
2022-09-04T18:50:36.445Z,2.58
2022-09-04T18:50:40.194Z,2.40
2022-09-04T18:51:39.181Z,2.47
2022-09-04T18:54:19.579Z,2.42
2022-09-04T18:56:53.593Z,2.53
2022-09-04T18:59:32.694Z,2.53
2022-09-04T19:02:24.731Z,2.50
2022-09-04T19:05:11.217Z,2.85
2022-09-04T19:07:59.704Z,3.13
2022-09-04T19:10:34.592Z,2.47
2022-09-04T19:13:22.261Z,2.60
2022-09-04T19:16:01.905Z,2.25
2022-09-04T19:19:03.925Z,2.65
2022-09-04T19:21:41.951Z,2.58
2022-09-04T19:24:20.387Z,2.40
2022-09-04T19:26:56.279Z,2.75
2022-09-04T19:29:29.907Z,2.90
2022-09-04T19:32:31.843Z,2.75
2022-09-04T19:35:32.266Z,2.25
2022-09-04T19:45:55.212Z,2.95
2022-09-04T19:46:08.582Z,2.90
2022-09-04T19:46:15.174Z,3.03
2022-09-04T19:47:28.589Z,2.95
2022-09-04T19:53:31.986Z,3.15
2022-09-04T19:53:35.190Z,2.70
2022-09-04T19:55:46.980Z,3.13
2022-09-04T19:58:14.192Z,2.92
2022-09-04T20:00:57.802Z,3.10
2022-09-04T20:03:31.260Z,2.90
2022-09-04T20:06:21.595Z,3.00
2022-09-04T20:09:01.775Z,3.08
2022-09-04T20:11:35.919Z,3.22
2022-09-04T20:14:40.254Z,2.90
2022-09-04T20:17:34.864Z,3.08
2022-09-04T20:20:11.536Z,2.83
2022-09-04T20:23:04.561Z,2.67
2022-09-04T20:26:05.754Z,2.80
2022-09-04T20:28:48.539Z,2.80
2022-09-04T20:31:41.851Z,2.58
2022-09-04T20:34:29.077Z,3.10
2022-09-04T20:37:41.579Z,3.05
2022-09-04T20:40:40.229Z,2.72
2022-09-04T20:43:31.538Z,2.70
2022-09-04T20:51:29.345Z,2.92
2022-09-04T20:52:55.459Z,2.65
2022-09-04T20:53:05.331Z,2.40
2022-09-04T20:55:56.600Z,2.70
2022-09-04T21:03:11.480Z,2.47
2022-09-04T21:03:19.492Z,2.75
2022-09-04T21:05:38.858Z,2.60
2022-09-04T21:08:29.780Z,2.90
2022-09-04T21:11:40.571Z,2.67
2022-09-04T21:14:30.075Z,2.75
2022-09-04T21:17:37.333Z,2.40
2022-09-04T21:20:25.559Z,2.25
2022-09-04T21:23:14.962Z,2.42
2022-09-04T21:25:55.241Z,2.58
2022-09-04T21:28:39.155Z,2.75
2022-09-04T21:31:16.711Z,2.60
2022-09-04T21:34:09.759Z,2.58
2022-09-04T21:36:47.110Z,2.63
2022-09-04T21:39:32.777Z,2.70
2022-09-04T21:42:27.626Z,2.70
2022-09-04T21:45:18.933Z,2.55
2022-09-04T21:48:18.468Z,2.50
2022-09-04T21:51:28.908Z,2.70
2022-09-04T21:54:37.634Z,2.45
2022-09-04T22:02:35.358Z,2.42
2022-09-04T22:03:35.300Z,2.60
2022-09-04T22:07:20.889Z,2.70
2022-09-04T22:13:28.959Z,3.00
2022-09-04T22:13:41.681Z,2.35
2022-09-04T22:16:42.058Z,2.65
2022-09-04T22:19:45.490Z,2.58
2022-09-04T22:22:43.548Z,2.30
2022-09-04T22:25:28.076Z,2.40
2022-09-04T22:28:09.810Z,2.42
2022-09-04T22:30:58.486Z,2.35
2022-09-04T22:34:14.991Z,2.47
2022-09-04T22:37:14.022Z,2.50
2022-09-04T22:39:49.970Z,2.40
2022-09-04T22:42:35.840Z,2.42
2022-09-04T22:45:21.515Z,2.35
2022-09-04T22:48:06.636Z,2.60
2022-09-04T22:51:02.779Z,2.28
2022-09-04T22:54:01.561Z,2.47
2022-09-04T22:56:40.986Z,2.65
2022-09-04T22:59:30.088Z,2.60
2022-09-04T23:02:13.287Z,2.38
2022-09-04T23:04:53.402Z,2.60
2022-09-04T23:12:22.063Z,2.20
2022-09-04T23:13:51.185Z,2.53
2022-09-04T23:14:06.507Z,2.22
2022-09-04T23:16:45.130Z,2.55
2022-09-04T23:26:31.312Z,2.40
2022-09-04T23:26:43.384Z,2.67
2022-09-04T23:28:34.093Z,2.50
2022-09-04T23:31:37.522Z,2.30
2022-09-04T23:34:35.728Z,2.50
2022-09-04T23:37:26.858Z,2.50
2022-09-04T23:40:07.581Z,2.60
2022-09-04T23:42:38.885Z,2.70
2022-09-04T23:45:12.136Z,2.53
2022-09-04T23:47:49.754Z,2.63
2022-09-04T23:50:41.975Z,2.42
2022-09-04T23:53:33.875Z,2.30
2022-09-04T23:56:39.159Z,2.60
2022-09-04T23:59:37.773Z,2.42
